Terminal Aerodrome Forecast
Issued by NWS

Home | Current Version | Previous Version | Text Only | Print | Product List | Glossary On
Versions: 1 2 3 4 5 6 7 8 9 10 11 12 13 14 15 16 17 18
000
FTUS41 KCAR 230539
TAFFVE
TAF
KFVE 230539Z 2306/2406 33012G18KT P6SM BKN015
     FM230700 33012G18KT P6SM BKN070
     FM231300 30014G22KT P6SM BKN045
     FM231600 30017G30KT P6SM BKN060
     FM232200 29014G23KT P6SM SCT070=

USA.gov is the U.S. government's official web portal to all federal, state and local government web resources and services.